sensor_id;sensor_type;location;lat;lon;timestamp;temperature;humidity
26053;DHT22;13826;51.186;4.450;2023-06-19T00:00:02;21.00;1.00
26053;DHT22;13826;51.186;4.450;2023-06-19T00:02:38;21.00;1.00
26053;DHT22;13826;51.186;4.450;2023-06-19T00:05:04;21.00;1.00
26053;DHT22;13826;51.186;4.450;2023-06-19T00:07:29;21.10;1.00
26053;DHT22;13826;51.186;4.450;2023-06-19T00:09:55;21.00;1.00
26053;DHT22;13826;51.186;4.450;2023-06-19T00:12:20;21.00;1.00
26053;DHT22;13826;51.186;4.450;2023-06-19T00:14:46;21.10;1.00
26053;DHT22;13826;51.186;4.450;2023-06-19T00:17:12;21.10;1.00
26053;DHT22;13826;51.186;4.450;2023-06-19T00:19:42;21.20;1.00
26053;DHT22;13826;51.186;4.450;2023-06-19T00:22:07;21.20;1.00
26053;DHT22;13826;51.186;4.450;2023-06-19T00:24:33;21.30;1.00
26053;DHT22;13826;51.186;4.450;2023-06-19T00:26:58;21.30;1.00
26053;DHT22;13826;51.186;4.450;2023-06-19T00:29:31;21.30;1.00
26053;DHT22;13826;51.186;4.450;2023-06-19T00:31:57;21.30;1.00
26053;DHT22;13826;51.186;4.450;2023-06-19T00:34:22;21.20;1.00
26053;DHT22;13826;51.186;4.450;2023-06-19T00:36:51;21.10;1.00
26053;DHT22;13826;51.186;4.450;2023-06-19T00:39:21;21.00;1.00
26053;DHT22;13826;51.186;4.450;2023-06-19T00:41:47;21.10;1.00
26053;DHT22;13826;51.186;4.450;2023-06-19T00:44:13;21.00;1.00
26053;DHT22;13826;51.186;4.450;2023-06-19T00:46:40;21.00;1.00
26053;DHT22;13826;51.186;4.450;2023-06-19T00:49:06;21.00;1.00
26053;DHT22;13826;51.186;4.450;2023-06-19T00:51:32;21.00;1.00
26053;DHT22;13826;51.186;4.450;2023-06-19T00:53:57;21.10;1.00
26053;DHT22;13826;51.186;4.450;2023-06-19T00:56:23;21.10;1.00
26053;DHT22;13826;51.186;4.450;2023-06-19T00:58:48;21.20;1.00
26053;DHT22;13826;51.186;4.450;2023-06-19T01:01:14;21.10;1.00
26053;DHT22;13826;51.186;4.450;2023-06-19T01:03:40;21.10;1.00
26053;DHT22;13826;51.186;4.450;2023-06-19T01:06:08;21.10;1.00
26053;DHT22;13826;51.186;4.450;2023-06-19T01:11:20;21.20;1.00
26053;DHT22;13826;51.186;4.450;2023-06-19T01:16:12;21.20;1.00
26053;DHT22;13826;51.186;4.450;2023-06-19T01:18:38;21.20;1.00
26053;DHT22;13826;51.186;4.450;2023-06-19T01:21:11;21.20;1.00
26053;DHT22;13826;51.186;4.450;2023-06-19T01:23:37;21.30;1.00
26053;DHT22;13826;51.186;4.450;2023-06-19T01:26:03;21.30;1.00
26053;DHT22;13826;51.186;4.450;2023-06-19T01:28:28;21.20;1.00
26053;DHT22;13826;51.186;4.450;2023-06-19T01:30:54;21.10;1.00
26053;DHT22;13826;51.186;4.450;2023-06-19T01:33:23;21.10;1.00
26053;DHT22;13826;51.186;4.450;2023-06-19T01:35:51;21.00;1.00
26053;DHT22;13826;51.186;4.450;2023-06-19T01:38:17;21.10;1.00
26053;DHT22;13826;51.186;4.450;2023-06-19T01:40:43;21.20;1.00
26053;DHT22;13826;51.186;4.450;2023-06-19T01:43:09;21.20;1.00
26053;DHT22;13826;51.186;4.450;2023-06-19T01:45:35;21.30;1.00
26053;DHT22;13826;51.186;4.450;2023-06-19T01:48:01;21.20;1.00
26053;DHT22;13826;51.186;4.450;2023-06-19T01:50:27;21.10;1.00
26053;DHT22;13826;51.186;4.450;2023-06-19T01:52:53;21.10;1.00
26053;DHT22;13826;51.186;4.450;2023-06-19T01:55:18;21.10;1.00
26053;DHT22;13826;51.186;4.450;2023-06-19T01:57:44;21.10;1.00
26053;DHT22;13826;51.186;4.450;2023-06-19T02:00:11;21.00;1.00
26053;DHT22;13826;51.186;4.450;2023-06-19T02:02:37;21.10;1.00
26053;DHT22;13826;51.186;4.450;2023-06-19T02:05:02;21.10;1.00
26053;DHT22;13826;51.186;4.450;2023-06-19T02:07:28;21.00;1.00
26053;DHT22;13826;51.186;4.450;2023-06-19T02:09:53;21.00;1.10
26053;DHT22;13826;51.186;4.450;2023-06-19T02:12:19;21.00;4.40
26053;DHT22;13826;51.186;4.450;2023-06-19T02:14:45;21.10;4.00
26053;DHT22;13826;51.186;4.450;2023-06-19T02:17:10;21.20;3.70
26053;DHT22;13826;51.186;4.450;2023-06-19T02:19:36;21.20;3.90
26053;DHT22;13826;51.186;4.450;2023-06-19T02:22:01;21.10;6.80
26053;DHT22;13826;51.186;4.450;2023-06-19T02:24:27;21.10;7.00
26053;DHT22;13826;51.186;4.450;2023-06-19T02:26:53;21.00;16.40
26053;DHT22;13826;51.186;4.450;2023-06-19T02:29:18;20.90;16.50
26053;DHT22;13826;51.186;4.450;2023-06-19T02:31:45;20.80;21.50
26053;DHT22;13826;51.186;4.450;2023-06-19T02:34:10;20.90;21.30
26053;DHT22;13826;51.186;4.450;2023-06-19T02:36:36;20.90;21.90
26053;DHT22;13826;51.186;4.450;2023-06-19T02:39:04;21.00;19.80
26053;DHT22;13826;51.186;4.450;2023-06-19T02:41:29;21.00;21.00
26053;DHT22;13826;51.186;4.450;2023-06-19T02:43:55;21.00;19.30
26053;DHT22;13826;51.186;4.450;2023-06-19T02:46:20;21.00;20.80
26053;DHT22;13826;51.186;4.450;2023-06-19T02:48:46;21.00;20.90
26053;DHT22;13826;51.186;4.450;2023-06-19T02:51:11;21.10;17.70
26053;DHT22;13826;51.186;4.450;2023-06-19T02:53:37;21.20;15.90
26053;DHT22;13826;51.186;4.450;2023-06-19T02:56:03;21.20;13.50
26053;DHT22;13826;51.186;4.450;2023-06-19T02:58:29;21.10;18.50
26053;DHT22;13826;51.186;4.450;2023-06-19T03:00:55;21.00;21.60
26053;DHT22;13826;51.186;4.450;2023-06-19T03:03:20;21.10;22.50
26053;DHT22;13826;51.186;4.450;2023-06-19T03:05:48;21.10;19.70
26053;DHT22;13826;51.186;4.450;2023-06-19T03:08:13;21.10;22.00
26053;DHT22;13826;51.186;4.450;2023-06-19T03:10:39;21.00;24.90
26053;DHT22;13826;51.186;4.450;2023-06-19T03:13:04;21.00;22.50
26053;DHT22;13826;51.186;4.450;2023-06-19T03:15:30;21.00;26.00
26053;DHT22;13826;51.186;4.450;2023-06-19T03:17:56;21.10;22.60
26053;DHT22;13826;51.186;4.450;2023-06-19T03:20:21;21.00;26.40
26053;DHT22;13826;51.186;4.450;2023-06-19T03:22:47;21.00;26.90
26053;DHT22;13826;51.186;4.450;2023-06-19T03:25:13;21.00;30.00
26053;DHT22;13826;51.186;4.450;2023-06-19T03:27:38;21.00;28.30
26053;DHT22;13826;51.186;4.450;2023-06-19T03:30:04;21.10;21.10
26053;DHT22;13826;51.186;4.450;2023-06-19T03:32:33;21.10;16.70
26053;DHT22;13826;51.186;4.450;2023-06-19T03:34:59;21.10;14.30
26053;DHT22;13826;51.186;4.450;2023-06-19T03:37:24;21.00;13.60
26053;DHT22;13826;51.186;4.450;2023-06-19T03:39:50;20.90;13.90
26053;DHT22;13826;51.186;4.450;2023-06-19T03:42:15;21.00;12.70
26053;DHT22;13826;51.186;4.450;2023-06-19T03:44:41;21.00;1.00
26053;DHT22;13826;51.186;4.450;2023-06-19T03:47:07;21.10;1.00
26053;DHT22;13826;51.186;4.450;2023-06-19T03:49:32;21.00;1.00
26053;DHT22;13826;51.186;4.450;2023-06-19T03:51:58;20.80;1.00
26053;DHT22;13826;51.186;4.450;2023-06-19T03:54:23;20.60;8.00
26053;DHT22;13826;51.186;4.450;2023-06-19T03:56:50;20.60;9.90
26053;DHT22;13826;51.186;4.450;2023-06-19T03:59:16;20.60;4.30
26053;DHT22;13826;51.186;4.450;2023-06-19T04:01:42;20.80;1.00
26053;DHT22;13826;51.186;4.450;2023-06-19T04:04:07;20.70;1.00
26053;DHT22;13826;51.186;4.450;2023-06-19T04:06:33;20.70;1.00
26053;DHT22;13826;51.186;4.450;2023-06-19T04:08:59;20.60;1.00
26053;DHT22;13826;51.186;4.450;2023-06-19T04:11:24;20.70;1.00
26053;DHT22;13826;51.186;4.450;2023-06-19T04:13:50;20.70;1.00
26053;DHT22;13826;51.186;4.450;2023-06-19T04:16:15;20.70;1.00
26053;DHT22;13826;51.186;4.450;2023-06-19T04:18:41;20.70;1.00
26053;DHT22;13826;51.186;4.450;2023-06-19T04:21:06;20.80;1.00
26053;DHT22;13826;51.186;4.450;2023-06-19T04:23:32;20.60;1.00
26053;DHT22;13826;51.186;4.450;2023-06-19T04:25:58;20.60;1.00
26053;DHT22;13826;51.186;4.450;2023-06-19T04:28:23;20.50;1.00
26053;DHT22;13826;51.186;4.450;2023-06-19T04:30:49;20.50;1.00
26053;DHT22;13826;51.186;4.450;2023-06-19T04:33:15;20.60;1.00
26053;DHT22;13826;51.186;4.450;2023-06-19T04:35:40;20.60;1.00
26053;DHT22;13826;51.186;4.450;2023-06-19T04:38:06;20.80;1.00
26053;DHT22;13826;51.186;4.450;2023-06-19T04:40:32;21.00;1.00
26053;DHT22;13826;51.186;4.450;2023-06-19T04:42:59;21.10;1.00
26053;DHT22;13826;51.186;4.450;2023-06-19T04:45:24;21.30;1.00
26053;DHT22;13826;51.186;4.450;2023-06-19T04:47:50;21.80;1.00
26053;DHT22;13826;51.186;4.450;2023-06-19T04:50:16;22.20;1.00
26053;DHT22;13826;51.186;4.450;2023-06-19T04:52:41;22.60;99.90
26053;DHT22;13826;51.186;4.450;2023-06-19T04:55:07;23.00;99.90
26053;DHT22;13826;51.186;4.450;2023-06-19T04:57:36;23.00;99.90
26053;DHT22;13826;51.186;4.450;2023-06-19T05:00:05;23.40;99.90
26053;DHT22;13826;51.186;4.450;2023-06-19T05:02:32;23.80;1.00
26053;DHT22;13826;51.186;4.450;2023-06-19T05:04:58;23.70;99.90
26053;DHT22;13826;51.186;4.450;2023-06-19T05:07:29;23.30;1.00
26053;DHT22;13826;51.186;4.450;2023-06-19T05:09:55;22.60;1.00
26053;DHT22;13826;51.186;4.450;2023-06-19T05:12:21;22.60;1.00
26053;DHT22;13826;51.186;4.450;2023-06-19T05:14:46;22.80;1.00
26053;DHT22;13826;51.186;4.450;2023-06-19T05:17:12;23.30;1.00
26053;DHT22;13826;51.186;4.450;2023-06-19T05:19:37;23.40;57.30
26053;DHT22;13826;51.186;4.450;2023-06-19T05:22:03;23.40;99.90
26053;DHT22;13826;51.186;4.450;2023-06-19T05:24:29;23.80;1.00
26053;DHT22;13826;51.186;4.450;2023-06-19T05:26:54;23.40;1.00
26053;DHT22;13826;51.186;4.450;2023-06-19T05:29:20;23.20;1.00
26053;DHT22;13826;51.186;4.450;2023-06-19T05:31:46;22.90;99.90
26053;DHT22;13826;51.186;4.450;2023-06-19T05:34:11;22.90;99.90
26053;DHT22;13826;51.186;4.450;2023-06-19T05:36:37;22.70;1.00
26053;DHT22;13826;51.186;4.450;2023-06-19T05:39:02;22.70;99.90
26053;DHT22;13826;51.186;4.450;2023-06-19T05:41:28;22.80;1.00
26053;DHT22;13826;51.186;4.450;2023-06-19T05:43:56;23.70;1.00
26053;DHT22;13826;51.186;4.450;2023-06-19T05:46:22;24.70;1.00
26053;DHT22;13826;51.186;4.450;2023-06-19T05:48:47;25.10;99.90
26053;DHT22;13826;51.186;4.450;2023-06-19T05:51:13;25.40;99.90
26053;DHT22;13826;51.186;4.450;2023-06-19T05:53:40;25.90;1.00
26053;DHT22;13826;51.186;4.450;2023-06-19T05:56:06;26.20;1.00
26053;DHT22;13826;51.186;4.450;2023-06-19T05:58:32;26.10;1.00
26053;DHT22;13826;51.186;4.450;2023-06-19T06:00:57;26.70;1.00
26053;DHT22;13826;51.186;4.450;2023-06-19T06:03:24;27.60;1.00
26053;DHT22;13826;51.186;4.450;2023-06-19T06:05:50;28.00;99.90
26053;DHT22;13826;51.186;4.450;2023-06-19T06:08:16;28.90;99.90
26053;DHT22;13826;51.186;4.450;2023-06-19T06:10:41;29.20;99.90
26053;DHT22;13826;51.186;4.450;2023-06-19T06:13:07;29.10;99.90
26053;DHT22;13826;51.186;4.450;2023-06-19T06:15:32;28.60;99.90
26053;DHT22;13826;51.186;4.450;2023-06-19T06:17:58;28.80;99.90
26053;DHT22;13826;51.186;4.450;2023-06-19T06:20:24;28.90;99.90
26053;DHT22;13826;51.186;4.450;2023-06-19T06:22:50;29.50;99.90
26053;DHT22;13826;51.186;4.450;2023-06-19T06:25:15;29.90;99.90
26053;DHT22;13826;51.186;4.450;2023-06-19T06:27:41;30.00;99.90
26053;DHT22;13826;51.186;4.450;2023-06-19T06:30:11;30.80;99.90
26053;DHT22;13826;51.186;4.450;2023-06-19T06:36:15;31.40;95.40
26053;DHT22;13826;51.186;4.450;2023-06-19T06:39:00;31.90;66.80
26053;DHT22;13826;51.186;4.450;2023-06-19T06:41:27;32.10;33.40
26053;DHT22;13826;51.186;4.450;2023-06-19T06:43:53;32.80;12.30
26053;DHT22;13826;51.186;4.450;2023-06-19T06:46:20;32.40;10.50
26053;DHT22;13826;51.186;4.450;2023-06-19T06:48:46;31.80;12.90
26053;DHT22;13826;51.186;4.450;2023-06-19T06:51:12;31.20;12.20
26053;DHT22;13826;51.186;4.450;2023-06-19T06:53:37;30.50;14.50
26053;DHT22;13826;51.186;4.450;2023-06-19T06:56:03;29.80;31.40
26053;DHT22;13826;51.186;4.450;2023-06-19T06:58:28;31.20;21.00
26053;DHT22;13826;51.186;4.450;2023-06-19T07:00:55;31.80;10.00
26053;DHT22;13826;51.186;4.450;2023-06-19T07:03:20;31.00;17.40
26053;DHT22;13826;51.186;4.450;2023-06-19T07:05:47;31.80;13.10
26053;DHT22;13826;51.186;4.450;2023-06-19T07:08:13;31.20;12.00
26053;DHT22;13826;51.186;4.450;2023-06-19T07:10:38;30.90;7.90
26053;DHT22;13826;51.186;4.450;2023-06-19T07:13:04;31.60;1.00
26053;DHT22;13826;51.186;4.450;2023-06-19T07:15:29;31.00;1.00
26053;DHT22;13826;51.186;4.450;2023-06-19T07:17:55;30.20;4.60
26053;DHT22;13826;51.186;4.450;2023-06-19T07:20:21;29.70;9.10
26053;DHT22;13826;51.186;4.450;2023-06-19T07:22:46;28.70;29.60
26053;DHT22;13826;51.186;4.450;2023-06-19T07:25:12;28.10;47.70
26053;DHT22;13826;51.186;4.450;2023-06-19T07:27:41;28.10;62.00
26053;DHT22;13826;51.186;4.450;2023-06-19T07:30:06;28.30;84.30
26053;DHT22;13826;51.186;4.450;2023-06-19T07:32:32;28.20;90.70
26053;DHT22;13826;51.186;4.450;2023-06-19T07:34:58;27.40;92.00
26053;DHT22;13826;51.186;4.450;2023-06-19T07:37:24;27.00;99.90
26053;DHT22;13826;51.186;4.450;2023-06-19T07:39:50;27.40;99.90
26053;DHT22;13826;51.186;4.450;2023-06-19T07:42:17;27.30;99.90
26053;DHT22;13826;51.186;4.450;2023-06-19T07:44:43;27.20;99.90
26053;DHT22;13826;51.186;4.450;2023-06-19T07:47:08;27.60;99.90
26053;DHT22;13826;51.186;4.450;2023-06-19T07:49:34;27.50;99.90
26053;DHT22;13826;51.186;4.450;2023-06-19T07:52:00;27.40;99.90
26053;DHT22;13826;51.186;4.450;2023-06-19T07:54:25;27.50;99.90
26053;DHT22;13826;51.186;4.450;2023-06-19T07:56:51;28.10;99.90
26053;DHT22;13826;51.186;4.450;2023-06-19T07:59:17;28.90;99.90
26053;DHT22;13826;51.186;4.450;2023-06-19T08:01:43;29.60;82.20
26053;DHT22;13826;51.186;4.450;2023-06-19T08:04:09;30.00;66.60
26053;DHT22;13826;51.186;4.450;2023-06-19T08:06:35;29.80;37.90
26053;DHT22;13826;51.186;4.450;2023-06-19T08:09:00;29.20;42.90
26053;DHT22;13826;51.186;4.450;2023-06-19T08:11:29;28.60;73.80
26053;DHT22;13826;51.186;4.450;2023-06-19T08:13:54;27.80;81.00
26053;DHT22;13826;51.186;4.450;2023-06-19T08:16:20;27.70;72.40
26053;DHT22;13826;51.186;4.450;2023-06-19T08:18:45;27.60;85.50
26053;DHT22;13826;51.186;4.450;2023-06-19T08:21:12;27.40;92.80
26053;DHT22;13826;51.186;4.450;2023-06-19T08:23:37;27.10;99.90
26053;DHT22;13826;51.186;4.450;2023-06-19T08:26:04;27.70;99.90
26053;DHT22;13826;51.186;4.450;2023-06-19T08:28:33;28.70;77.20
26053;DHT22;13826;51.186;4.450;2023-06-19T08:30:59;29.50;57.10
26053;DHT22;13826;51.186;4.450;2023-06-19T08:33:24;30.10;32.70
26053;DHT22;13826;51.186;4.450;2023-06-19T08:35:50;31.20;25.40
26053;DHT22;13826;51.186;4.450;2023-06-19T08:38:15;32.40;4.10
26053;DHT22;13826;51.186;4.450;2023-06-19T08:40:42;32.60;1.00
26053;DHT22;13826;51.186;4.450;2023-06-19T08:43:08;33.60;1.00
26053;DHT22;13826;51.186;4.450;2023-06-19T08:45:34;34.70;1.00
26053;DHT22;13826;51.186;4.450;2023-06-19T08:48:00;35.50;1.00
26053;DHT22;13826;51.186;4.450;2023-06-19T08:50:26;35.50;1.00
26053;DHT22;13826;51.186;4.450;2023-06-19T08:52:51;35.40;1.00
26053;DHT22;13826;51.186;4.450;2023-06-19T08:55:17;35.70;1.00
26053;DHT22;13826;51.186;4.450;2023-06-19T08:57:42;35.40;1.00
26053;DHT22;13826;51.186;4.450;2023-06-19T09:00:08;36.10;1.00
26053;DHT22;13826;51.186;4.450;2023-06-19T09:02:37;35.70;1.00
26053;DHT22;13826;51.186;4.450;2023-06-19T09:05:10;35.10;1.00
26053;DHT22;13826;51.186;4.450;2023-06-19T09:07:36;35.30;1.00
26053;DHT22;13826;51.186;4.450;2023-06-19T09:10:11;36.10;1.00
26053;DHT22;13826;51.186;4.450;2023-06-19T09:12:36;36.30;1.00
26053;DHT22;13826;51.186;4.450;2023-06-19T09:15:10;36.10;1.00
26053;DHT22;13826;51.186;4.450;2023-06-19T09:17:36;36.50;1.00
26053;DHT22;13826;51.186;4.450;2023-06-19T09:20:02;36.40;1.00
26053;DHT22;13826;51.186;4.450;2023-06-19T09:22:30;35.80;1.00
26053;DHT22;13826;51.186;4.450;2023-06-19T09:25:00;36.00;1.00
26053;DHT22;13826;51.186;4.450;2023-06-19T09:27:31;36.30;1.00
26053;DHT22;13826;51.186;4.450;2023-06-19T09:29:56;37.90;1.00
26053;DHT22;13826;51.186;4.450;2023-06-19T09:32:23;37.80;1.00
26053;DHT22;13826;51.186;4.450;2023-06-19T09:34:50;37.30;1.00
26053;DHT22;13826;51.186;4.450;2023-06-19T09:37:37;37.70;1.00
26053;DHT22;13826;51.186;4.450;2023-06-19T09:40:02;38.10;1.00
26053;DHT22;13826;51.186;4.450;2023-06-19T09:42:38;37.90;1.00
26053;DHT22;13826;51.186;4.450;2023-06-19T09:45:08;37.40;1.00
26053;DHT22;13826;51.186;4.450;2023-06-19T09:47:38;35.60;1.00
26053;DHT22;13826;51.186;4.450;2023-06-19T09:50:04;34.20;1.00
26053;DHT22;13826;51.186;4.450;2023-06-19T09:52:29;33.30;1.00
26053;DHT22;13826;51.186;4.450;2023-06-19T09:54:58;33.90;1.00
26053;DHT22;13826;51.186;4.450;2023-06-19T09:57:25;34.70;1.00
26053;DHT22;13826;51.186;4.450;2023-06-19T09:59:54;34.80;1.00
26053;DHT22;13826;51.186;4.450;2023-06-19T10:02:25;34.60;1.00
26053;DHT22;13826;51.186;4.450;2023-06-19T10:04:52;34.10;1.00
26053;DHT22;13826;51.186;4.450;2023-06-19T10:07:22;33.80;1.00
26053;DHT22;13826;51.186;4.450;2023-06-19T10:10:01;33.30;1.00
26053;DHT22;13826;51.186;4.450;2023-06-19T10:12:34;33.30;1.00
26053;DHT22;13826;51.186;4.450;2023-06-19T10:15:22;33.80;1.00
26053;DHT22;13826;51.186;4.450;2023-06-19T10:17:50;34.00;1.00
26053;DHT22;13826;51.186;4.450;2023-06-19T10:20:23;34.00;1.00
26053;DHT22;13826;51.186;4.450;2023-06-19T10:22:59;34.10;1.00
26053;DHT22;13826;51.186;4.450;2023-06-19T10:25:27;33.90;1.00
26053;DHT22;13826;51.186;4.450;2023-06-19T10:27:53;33.80;1.00
26053;DHT22;13826;51.186;4.450;2023-06-19T10:30:20;33.60;1.00
26053;DHT22;13826;51.186;4.450;2023-06-19T10:32:49;33.70;1.00
26053;DHT22;13826;51.186;4.450;2023-06-19T10:35:15;34.40;1.00
26053;DHT22;13826;51.186;4.450;2023-06-19T10:37:41;34.60;1.00
26053;DHT22;13826;51.186;4.450;2023-06-19T10:40:07;35.40;1.00
26053;DHT22;13826;51.186;4.450;2023-06-19T10:42:36;36.00;1.00
26053;DHT22;13826;51.186;4.450;2023-06-19T10:45:05;35.90;1.00
26053;DHT22;13826;51.186;4.450;2023-06-19T10:47:32;36.60;1.00
26053;DHT22;13826;51.186;4.450;2023-06-19T10:49:57;36.90;1.00
26053;DHT22;13826;51.186;4.450;2023-06-19T10:52:23;35.80;1.00
26053;DHT22;13826;51.186;4.450;2023-06-19T10:54:53;35.60;1.00
26053;DHT22;13826;51.186;4.450;2023-06-19T10:57:26;34.20;1.00
26053;DHT22;13826;51.186;4.450;2023-06-19T10:59:51;33.70;1.00
26053;DHT22;13826;51.186;4.450;2023-06-19T11:02:18;33.20;1.00
26053;DHT22;13826;51.186;4.450;2023-06-19T11:04:44;32.30;1.00
26053;DHT22;13826;51.186;4.450;2023-06-19T11:07:10;33.40;1.00
26053;DHT22;13826;51.186;4.450;2023-06-19T11:09:35;33.70;1.00
26053;DHT22;13826;51.186;4.450;2023-06-19T11:12:01;33.20;1.00
26053;DHT22;13826;51.186;4.450;2023-06-19T11:14:28;33.80;1.00
26053;DHT22;13826;51.186;4.450;2023-06-19T11:16:54;34.90;1.00
26053;DHT22;13826;51.186;4.450;2023-06-19T11:19:20;35.20;1.00
26053;DHT22;13826;51.186;4.450;2023-06-19T11:21:47;35.50;1.00
26053;DHT22;13826;51.186;4.450;2023-06-19T11:24:14;35.40;1.00
26053;DHT22;13826;51.186;4.450;2023-06-19T11:26:40;35.60;1.00
26053;DHT22;13826;51.186;4.450;2023-06-19T11:29:22;35.60;1.00
26053;DHT22;13826;51.186;4.450;2023-06-19T11:31:48;35.20;1.00
26053;DHT22;13826;51.186;4.450;2023-06-19T11:34:14;35.00;1.00
26053;DHT22;13826;51.186;4.450;2023-06-19T11:36:40;35.20;1.00
26053;DHT22;13826;51.186;4.450;2023-06-19T11:39:10;35.70;1.00
26053;DHT22;13826;51.186;4.450;2023-06-19T11:41:36;36.10;1.00
26053;DHT22;13826;51.186;4.450;2023-06-19T11:44:05;35.80;1.00
26053;DHT22;13826;51.186;4.450;2023-06-19T11:46:32;35.80;1.00
26053;DHT22;13826;51.186;4.450;2023-06-19T11:51:57;35.30;1.00
26053;DHT22;13826;51.186;4.450;2023-06-19T11:54:23;34.30;1.00
26053;DHT22;13826;51.186;4.450;2023-06-19T11:56:48;32.60;1.00
26053;DHT22;13826;51.186;4.450;2023-06-19T11:59:14;31.90;1.00
26053;DHT22;13826;51.186;4.450;2023-06-19T12:01:40;31.20;1.00
26053;DHT22;13826;51.186;4.450;2023-06-19T12:04:06;31.10;1.00
26053;DHT22;13826;51.186;4.450;2023-06-19T12:06:31;31.30;1.00
26053;DHT22;13826;51.186;4.450;2023-06-19T12:08:57;31.10;1.00
26053;DHT22;13826;51.186;4.450;2023-06-19T12:11:22;30.70;1.00
26053;DHT22;13826;51.186;4.450;2023-06-19T12:13:50;30.60;1.00
26053;DHT22;13826;51.186;4.450;2023-06-19T12:16:15;30.30;1.00
26053;DHT22;13826;51.186;4.450;2023-06-19T12:18:41;30.30;1.00
26053;DHT22;13826;51.186;4.450;2023-06-19T12:21:07;30.20;1.00
26053;DHT22;13826;51.186;4.450;2023-06-19T12:23:32;30.00;1.00
26053;DHT22;13826;51.186;4.450;2023-06-19T12:25:58;30.30;1.00
26053;DHT22;13826;51.186;4.450;2023-06-19T12:28:24;30.00;1.00
26053;DHT22;13826;51.186;4.450;2023-06-19T12:30:51;30.10;1.00
26053;DHT22;13826;51.186;4.450;2023-06-19T12:33:17;30.20;1.00
26053;DHT22;13826;51.186;4.450;2023-06-19T12:35:43;30.10;1.00
26053;DHT22;13826;51.186;4.450;2023-06-19T12:38:09;30.30;1.00
26053;DHT22;13826;51.186;4.450;2023-06-19T12:40:36;30.50;1.00
26053;DHT22;13826;51.186;4.450;2023-06-19T12:43:01;30.40;1.00
26053;DHT22;13826;51.186;4.450;2023-06-19T12:45:28;30.10;1.00
26053;DHT22;13826;51.186;4.450;2023-06-19T12:47:53;30.20;1.00
26053;DHT22;13826;51.186;4.450;2023-06-19T12:50:19;30.40;1.00
26053;DHT22;13826;51.186;4.450;2023-06-19T12:52:45;30.70;1.00
26053;DHT22;13826;51.186;4.450;2023-06-19T12:55:10;30.30;1.00
26053;DHT22;13826;51.186;4.450;2023-06-19T12:57:36;30.30;1.00
26053;DHT22;13826;51.186;4.450;2023-06-19T13:00:02;30.20;1.00
26053;DHT22;13826;51.186;4.450;2023-06-19T13:02:30;30.30;1.00
26053;DHT22;13826;51.186;4.450;2023-06-19T13:04:56;30.20;1.00
26053;DHT22;13826;51.186;4.450;2023-06-19T13:07:23;30.40;1.00
26053;DHT22;13826;51.186;4.450;2023-06-19T13:09:49;30.80;1.00
26053;DHT22;13826;51.186;4.450;2023-06-19T13:12:14;31.30;1.00
26053;DHT22;13826;51.186;4.450;2023-06-19T13:14:40;30.80;1.00
26053;DHT22;13826;51.186;4.450;2023-06-19T13:17:07;30.70;1.00
26053;DHT22;13826;51.186;4.450;2023-06-19T13:19:32;30.60;1.00
26053;DHT22;13826;51.186;4.450;2023-06-19T13:21:58;30.30;1.00
26053;DHT22;13826;51.186;4.450;2023-06-19T13:24:24;29.80;1.00
26053;DHT22;13826;51.186;4.450;2023-06-19T13:26:53;29.30;1.00
26053;DHT22;13826;51.186;4.450;2023-06-19T13:29:18;29.40;1.00
26053;DHT22;13826;51.186;4.450;2023-06-19T13:31:44;29.60;1.00
26053;DHT22;13826;51.186;4.450;2023-06-19T13:34:10;29.80;1.00
26053;DHT22;13826;51.186;4.450;2023-06-19T13:36:36;29.80;1.00
26053;DHT22;13826;51.186;4.450;2023-06-19T13:39:05;29.70;1.00
26053;DHT22;13826;51.186;4.450;2023-06-19T13:41:31;30.00;1.00
26053;DHT22;13826;51.186;4.450;2023-06-19T13:44:06;29.90;1.00
26053;DHT22;13826;51.186;4.450;2023-06-19T13:49:15;29.60;1.00
26053;DHT22;13826;51.186;4.450;2023-06-19T13:51:41;29.80;1.00
26053;DHT22;13826;51.186;4.450;2023-06-19T13:54:09;30.00;1.00
26053;DHT22;13826;51.186;4.450;2023-06-19T13:56:35;29.80;1.00
26053;DHT22;13826;51.186;4.450;2023-06-19T13:59:02;30.00;1.00
26053;DHT22;13826;51.186;4.450;2023-06-19T14:01:28;30.10;1.00
26053;DHT22;13826;51.186;4.450;2023-06-19T14:03:53;29.90;1.00
26053;DHT22;13826;51.186;4.450;2023-06-19T14:06:19;29.90;1.00
26053;DHT22;13826;51.186;4.450;2023-06-19T14:08:44;29.80;1.00
26053;DHT22;13826;51.186;4.450;2023-06-19T14:11:10;29.80;1.00
26053;DHT22;13826;51.186;4.450;2023-06-19T14:13:36;29.60;1.00
26053;DHT22;13826;51.186;4.450;2023-06-19T14:16:02;29.60;1.00
26053;DHT22;13826;51.186;4.450;2023-06-19T14:18:28;29.60;1.00
26053;DHT22;13826;51.186;4.450;2023-06-19T14:20:53;29.60;1.00
26053;DHT22;13826;51.186;4.450;2023-06-19T14:23:19;29.80;1.00
26053;DHT22;13826;51.186;4.450;2023-06-19T14:25:44;29.90;1.00
26053;DHT22;13826;51.186;4.450;2023-06-19T14:28:10;29.80;1.00
26053;DHT22;13826;51.186;4.450;2023-06-19T14:30:35;29.60;1.00
26053;DHT22;13826;51.186;4.450;2023-06-19T14:33:01;29.90;1.00
26053;DHT22;13826;51.186;4.450;2023-06-19T14:35:27;30.10;1.00
26053;DHT22;13826;51.186;4.450;2023-06-19T14:37:53;30.20;1.00
26053;DHT22;13826;51.186;4.450;2023-06-19T14:40:18;30.20;1.00
26053;DHT22;13826;51.186;4.450;2023-06-19T14:42:44;30.20;1.00
26053;DHT22;13826;51.186;4.450;2023-06-19T14:45:09;30.30;1.00
26053;DHT22;13826;51.186;4.450;2023-06-19T14:47:35;30.10;1.00
26053;DHT22;13826;51.186;4.450;2023-06-19T14:50:01;30.20;1.00
26053;DHT22;13826;51.186;4.450;2023-06-19T14:52:26;30.20;1.00
26053;DHT22;13826;51.186;4.450;2023-06-19T14:54:52;30.20;1.00
26053;DHT22;13826;51.186;4.450;2023-06-19T14:57:18;30.30;1.00
26053;DHT22;13826;51.186;4.450;2023-06-19T14:59:43;30.40;1.00
26053;DHT22;13826;51.186;4.450;2023-06-19T15:02:09;30.20;1.00
26053;DHT22;13826;51.186;4.450;2023-06-19T15:04:36;30.30;1.00
26053;DHT22;13826;51.186;4.450;2023-06-19T15:07:02;30.10;1.00
26053;DHT22;13826;51.186;4.450;2023-06-19T15:09:27;30.20;1.00
26053;DHT22;13826;51.186;4.450;2023-06-19T15:11:53;29.60;1.00
26053;DHT22;13826;51.186;4.450;2023-06-19T15:14:19;29.60;1.00
26053;DHT22;13826;51.186;4.450;2023-06-19T15:16:45;29.70;1.00
26053;DHT22;13826;51.186;4.450;2023-06-19T15:19:10;29.80;1.00
26053;DHT22;13826;51.186;4.450;2023-06-19T15:21:36;29.80;1.00
26053;DHT22;13826;51.186;4.450;2023-06-19T15:24:01;29.80;1.00
26053;DHT22;13826;51.186;4.450;2023-06-19T15:26:27;29.70;1.00
26053;DHT22;13826;51.186;4.450;2023-06-19T15:28:52;29.70;1.00
26053;DHT22;13826;51.186;4.450;2023-06-19T15:31:21;29.70;1.00
26053;DHT22;13826;51.186;4.450;2023-06-19T15:33:53;29.40;1.00
26053;DHT22;13826;51.186;4.450;2023-06-19T15:36:19;29.50;1.00
26053;DHT22;13826;51.186;4.450;2023-06-19T15:38:44;29.80;1.00
26053;DHT22;13826;51.186;4.450;2023-06-19T15:41:10;30.20;1.00
26053;DHT22;13826;51.186;4.450;2023-06-19T15:43:36;30.20;1.00
26053;DHT22;13826;51.186;4.450;2023-06-19T15:46:01;30.10;1.00
26053;DHT22;13826;51.186;4.450;2023-06-19T15:48:29;30.00;1.00
26053;DHT22;13826;51.186;4.450;2023-06-19T15:50:55;30.20;1.00